createdAt,value
2018-08-04T00:01:51.483Z,24.99
2018-08-04T00:02:51.403Z,25.03
2018-08-04T00:04:44.520Z,25.00
2018-08-04T00:05:44.446Z,24.99
2018-08-04T00:07:37.457Z,24.90
2018-08-04T00:08:37.374Z,24.84
2018-08-04T00:10:30.145Z,24.73
2018-08-04T00:11:30.088Z,24.73
2018-08-04T00:13:22.845Z,24.69
2018-08-04T00:14:22.765Z,24.73
2018-08-04T00:16:15.583Z,24.68
2018-08-04T00:17:15.517Z,24.65
2018-08-04T00:19:08.473Z,24.61
2018-08-04T00:20:08.381Z,24.62
2018-08-04T00:22:01.402Z,24.62
2018-08-04T00:23:01.325Z,24.62
2018-08-04T00:24:54.353Z,24.64
2018-08-04T00:25:54.280Z,24.45
2018-08-04T00:27:47.245Z,24.62
2018-08-04T00:28:47.155Z,24.62
2018-08-04T00:30:40.154Z,24.55
2018-08-04T00:31:40.083Z,24.55
2018-08-04T00:33:32.855Z,24.50
2018-08-04T00:34:32.809Z,24.53
2018-08-04T00:36:25.539Z,24.47
2018-08-04T00:37:25.463Z,24.46
2018-08-04T00:39:18.229Z,24.58
2018-08-04T00:40:18.152Z,24.60
2018-08-04T00:42:10.909Z,24.65
2018-08-04T00:43:10.837Z,24.68
2018-08-04T00:45:03.840Z,24.65
2018-08-04T00:46:03.759Z,24.65
2018-08-04T00:47:56.776Z,24.67
2018-08-04T00:48:56.681Z,24.62
2018-08-04T00:50:49.694Z,24.55
2018-08-04T00:51:49.647Z,24.61
2018-08-04T00:53:42.398Z,24.67
2018-08-04T00:54:42.306Z,24.65
2018-08-04T00:56:35.066Z,24.71
2018-08-04T00:57:34.994Z,24.71
2018-08-04T00:59:27.766Z,24.64
2018-08-04T01:00:27.682Z,24.62
2018-08-04T01:02:20.497Z,24.68
2018-08-04T01:03:20.421Z,24.58
2018-08-04T01:05:13.190Z,24.35
2018-08-04T01:06:13.119Z,24.25
2018-08-04T01:08:06.099Z,24.25
2018-08-04T01:09:06.029Z,24.10
2018-08-04T01:10:58.873Z,24.00
2018-08-04T01:11:58.802Z,24.02
2018-08-04T01:13:51.802Z,23.98
2018-08-04T01:14:51.707Z,23.95
2018-08-04T01:16:44.474Z,23.91
2018-08-04T01:17:44.397Z,24.02
2018-08-04T01:19:37.165Z,23.94
2018-08-04T01:20:37.082Z,23.93
2018-08-04T01:22:29.850Z,23.95
2018-08-04T01:23:29.776Z,23.84
2018-08-04T01:25:22.547Z,23.70
2018-08-04T01:26:22.466Z,23.65
2018-08-04T01:28:15.232Z,23.68
2018-08-04T01:29:15.161Z,23.54
2018-08-04T01:31:08.141Z,23.60
2018-08-04T01:32:08.065Z,23.55
2018-08-04T01:34:01.067Z,23.70
2018-08-04T01:35:00.979Z,23.63
2018-08-04T01:36:53.992Z,23.65
2018-08-04T01:37:53.912Z,23.68
2018-08-04T01:39:47.292Z,23.63
2018-08-04T01:40:47.209Z,23.68
2018-08-04T01:42:40.199Z,23.78
2018-08-04T01:43:40.136Z,23.85
2018-08-04T01:45:32.902Z,23.95
2018-08-04T01:46:32.820Z,23.91
2018-08-04T01:48:25.578Z,23.93
2018-08-04T01:49:25.500Z,23.93
2018-08-04T01:51:18.271Z,23.95
2018-08-04T01:52:18.193Z,23.93
2018-08-04T01:54:10.964Z,23.90
2018-08-04T01:55:10.885Z,23.75
2018-08-04T01:57:03.906Z,23.83
2018-08-04T01:58:03.815Z,23.78
2018-08-04T01:59:56.817Z,23.85
2018-08-04T02:00:56.732Z,23.80
2018-08-04T02:02:49.794Z,23.83
2018-08-04T02:03:49.722Z,23.78
2018-08-04T02:05:42.722Z,23.80
2018-08-04T02:06:42.642Z,23.91
2018-08-04T02:08:35.398Z,23.93
2018-08-04T02:09:35.329Z,23.87
2018-08-04T02:11:28.098Z,23.93
2018-08-04T02:12:28.013Z,23.94
2018-08-04T02:14:20.784Z,23.93
2018-08-04T02:15:20.700Z,23.90
2018-08-04T02:17:13.661Z,23.97
2018-08-04T02:18:13.580Z,23.94
2018-08-04T02:20:06.576Z,23.76
2018-08-04T02:21:06.507Z,23.66
2018-08-04T02:22:59.516Z,23.66
2018-08-04T02:23:59.428Z,23.65
2018-08-04T02:25:52.866Z,23.58
2018-08-04T02:26:52.793Z,23.60
2018-08-04T02:28:45.567Z,23.47
2018-08-04T02:29:45.478Z,23.43
2018-08-04T02:31:38.259Z,23.32
2018-08-04T02:32:38.172Z,23.23
2018-08-04T02:34:30.923Z,23.22
2018-08-04T02:35:30.853Z,23.20
2018-08-04T02:37:23.621Z,23.33
2018-08-04T02:38:23.538Z,23.38
2018-08-04T02:40:16.298Z,23.35
2018-08-04T02:41:16.225Z,23.35
2018-08-04T02:43:09.005Z,23.36
2018-08-04T02:44:08.919Z,23.38
2018-08-04T02:46:01.909Z,23.28
2018-08-04T02:47:01.836Z,23.23
2018-08-04T02:48:54.844Z,23.25
2018-08-04T02:49:54.766Z,23.19
2018-08-04T02:51:47.758Z,23.07
2018-08-04T02:52:47.686Z,23.04
2018-08-04T02:54:40.452Z,23.02
2018-08-04T02:55:40.372Z,22.94
2018-08-04T02:57:33.196Z,22.79
2018-08-04T02:58:33.113Z,22.76
2018-08-04T03:00:25.873Z,22.75
2018-08-04T03:01:25.804Z,22.73
2018-08-04T03:03:18.642Z,22.64
2018-08-04T03:04:18.499Z,22.54
2018-08-04T03:06:11.245Z,22.72
2018-08-04T03:07:11.174Z,22.73
2018-08-04T03:09:04.210Z,22.60
2018-08-04T03:10:04.089Z,22.70
2018-08-04T03:11:57.093Z,22.80
2018-08-04T03:12:57.024Z,22.80
2018-08-04T03:14:50.045Z,22.94
2018-08-04T03:15:49.955Z,22.98
2018-08-04T03:17:43.896Z,23.02
2018-08-04T03:18:43.802Z,22.97
2018-08-04T03:20:36.558Z,22.82
2018-08-04T03:21:36.480Z,22.82
2018-08-04T03:23:29.242Z,22.79
2018-08-04T03:24:29.166Z,22.77
2018-08-04T03:26:21.929Z,22.83
2018-08-04T03:27:21.848Z,22.85
2018-08-04T03:29:14.619Z,22.83
2018-08-04T03:30:14.537Z,22.95
2018-08-04T03:32:07.535Z,22.91
2018-08-04T03:33:07.465Z,23.00
2018-08-04T03:35:00.480Z,22.94
2018-08-04T03:36:00.414Z,22.91
2018-08-04T03:37:53.406Z,22.79
2018-08-04T03:38:53.353Z,22.77
2018-08-04T03:40:46.167Z,22.76
2018-08-04T03:41:46.089Z,22.85
2018-08-04T03:43:38.840Z,22.72
2018-08-04T03:44:38.766Z,22.79
2018-08-04T03:46:31.546Z,22.82
2018-08-04T03:47:31.484Z,22.86
2018-08-04T03:49:24.467Z,22.83
2018-08-04T03:50:24.405Z,22.80
2018-08-04T03:52:17.208Z,22.91
2018-08-04T03:53:17.079Z,22.88
2018-08-04T03:55:09.845Z,22.94
2018-08-04T03:56:09.761Z,22.91
2018-08-04T03:58:02.631Z,23.00
2018-08-04T03:59:02.556Z,22.90
2018-08-04T04:00:55.560Z,22.91
2018-08-04T04:01:55.477Z,22.86
2018-08-04T04:03:48.476Z,22.80
2018-08-04T04:04:48.403Z,22.77
2018-08-04T04:06:41.279Z,22.82
2018-08-04T04:07:41.086Z,22.88
2018-08-04T04:09:33.847Z,22.79
2018-08-04T04:10:33.773Z,22.72
2018-08-04T04:12:26.600Z,22.60
2018-08-04T04:13:26.522Z,22.68
2018-08-04T04:15:19.299Z,22.67
2018-08-04T04:16:19.200Z,22.54
2018-08-04T04:18:11.957Z,22.58
2018-08-04T04:19:11.897Z,22.54
2018-08-04T04:21:04.648Z,22.57
2018-08-04T04:22:04.601Z,22.61
2018-08-04T04:23:57.562Z,22.68
2018-08-04T04:24:57.488Z,22.68
2018-08-04T04:26:50.319Z,22.72
2018-08-04T04:27:50.236Z,22.83
2018-08-04T04:29:43.562Z,22.91
2018-08-04T04:30:43.486Z,22.82
2018-08-04T04:32:36.265Z,22.79
2018-08-04T04:33:36.179Z,22.79
2018-08-04T04:35:28.935Z,22.85
2018-08-04T04:36:28.860Z,22.82
2018-08-04T04:38:21.675Z,22.83
2018-08-04T04:39:21.550Z,22.76
2018-08-04T04:41:14.313Z,22.76
2018-08-04T04:42:14.234Z,22.83
2018-08-04T04:44:06.994Z,22.73
2018-08-04T04:45:06.912Z,22.79
2018-08-04T04:46:59.919Z,22.80
2018-08-04T04:47:59.838Z,22.80
2018-08-04T04:49:52.913Z,22.97
2018-08-04T04:50:52.846Z,22.98
2018-08-04T04:52:45.846Z,22.94
2018-08-04T04:53:45.757Z,22.94
2018-08-04T04:55:38.755Z,22.97
2018-08-04T04:56:38.682Z,23.13
2018-08-04T04:58:31.449Z,23.10
2018-08-04T04:59:31.364Z,23.09
2018-08-04T05:01:24.293Z,23.20
2018-08-04T05:02:24.214Z,23.19
2018-08-04T05:04:17.006Z,23.07
2018-08-04T05:05:16.911Z,23.10
2018-08-04T05:07:09.655Z,23.09
2018-08-04T05:08:09.640Z,23.09
2018-08-04T05:10:02.628Z,23.09
2018-08-04T05:11:02.508Z,23.12
2018-08-04T05:12:55.539Z,23.20
2018-08-04T05:13:55.451Z,23.27
2018-08-04T05:15:48.496Z,23.23
2018-08-04T05:16:48.383Z,23.22
2018-08-04T05:18:41.377Z,23.27
2018-08-04T05:19:41.296Z,23.19
2018-08-04T05:21:34.093Z,23.17
2018-08-04T05:22:33.982Z,23.12
2018-08-04T05:24:27.017Z,23.19
2018-08-04T05:25:26.926Z,23.13
2018-08-04T05:27:19.677Z,23.10
2018-08-04T05:28:19.604Z,23.16
2018-08-04T05:30:12.375Z,23.17
2018-08-04T05:31:12.288Z,23.20
2018-08-04T05:33:05.338Z,23.20
2018-08-04T05:34:05.238Z,23.20
2018-08-04T05:35:58.221Z,23.20
2018-08-04T05:36:58.161Z,23.25
2018-08-04T05:38:51.144Z,23.20
2018-08-04T05:39:51.066Z,23.15
2018-08-04T05:41:44.698Z,23.23
2018-08-04T05:42:44.628Z,23.27
2018-08-04T05:44:37.750Z,23.32
2018-08-04T05:45:37.552Z,23.39
2018-08-04T05:47:30.562Z,23.50
2018-08-04T05:48:30.487Z,23.54
2018-08-04T05:50:23.246Z,23.47
2018-08-04T05:51:23.165Z,23.39
2018-08-04T05:53:15.925Z,23.43
2018-08-04T05:54:15.856Z,23.46
2018-08-04T05:56:08.646Z,23.36
2018-08-04T05:57:08.568Z,23.19
2018-08-04T05:59:01.443Z,23.25
2018-08-04T06:00:01.358Z,23.32
2018-08-04T06:01:54.347Z,23.32
2018-08-04T06:02:54.273Z,23.27
2018-08-04T06:04:47.279Z,23.40
2018-08-04T06:05:47.196Z,23.50
2018-08-04T06:07:40.186Z,23.46
2018-08-04T06:08:40.116Z,23.53
2018-08-04T06:10:32.887Z,23.53
2018-08-04T06:11:32.806Z,23.66
2018-08-04T06:13:25.824Z,23.60
2018-08-04T06:14:25.739Z,23.70
2018-08-04T06:16:18.508Z,23.75
2018-08-04T06:17:18.444Z,23.88
2018-08-04T06:19:11.182Z,23.97
2018-08-04T06:20:11.112Z,23.90
2018-08-04T06:22:04.141Z,23.94
2018-08-04T06:23:04.031Z,24.02
2018-08-04T06:24:57.036Z,24.12
2018-08-04T06:25:56.955Z,24.15
2018-08-04T06:27:49.778Z,24.12
2018-08-04T06:28:49.704Z,24.20
2018-08-04T06:30:43.039Z,24.24
2018-08-04T06:31:42.935Z,24.37
2018-08-04T06:33:35.691Z,24.46
2018-08-04T06:34:35.620Z,24.52
2018-08-04T06:36:28.391Z,24.60
2018-08-04T06:37:28.313Z,24.45
2018-08-04T06:39:21.073Z,24.60
2018-08-04T06:40:20.994Z,24.58
2018-08-04T06:42:13.772Z,24.62
2018-08-04T06:43:13.684Z,24.60
2018-08-04T06:45:06.683Z,24.65
2018-08-04T06:46:06.617Z,24.78
2018-08-04T06:47:59.627Z,24.73
2018-08-04T06:48:59.541Z,24.78
2018-08-04T06:50:52.566Z,24.73
2018-08-04T06:51:52.483Z,24.77
2018-08-04T06:53:45.784Z,24.77
2018-08-04T06:54:45.713Z,24.78
2018-08-04T06:56:38.543Z,24.84
2018-08-04T06:57:38.460Z,24.96
2018-08-04T06:59:31.333Z,24.91
2018-08-04T07:00:31.260Z,24.96
2018-08-04T07:02:24.028Z,25.00
2018-08-04T07:03:23.947Z,25.09
2018-08-04T07:05:16.714Z,25.18
2018-08-04T07:06:16.635Z,25.28
2018-08-04T07:08:09.652Z,25.35
2018-08-04T07:09:09.576Z,25.32
2018-08-04T07:11:02.450Z,25.52
2018-08-04T07:12:02.328Z,25.47
2018-08-04T07:13:55.335Z,25.61
2018-08-04T07:14:55.247Z,25.79
2018-08-04T07:16:48.023Z,25.85
2018-08-04T07:17:47.940Z,26.01
2018-08-04T07:19:40.944Z,26.15
2018-08-04T07:20:40.862Z,26.07
2018-08-04T07:22:33.640Z,26.17
2018-08-04T07:23:33.555Z,26.12
2018-08-04T07:25:26.436Z,26.28
2018-08-04T07:26:26.383Z,26.25
2018-08-04T07:28:19.144Z,26.40
2018-08-04T07:29:19.062Z,26.48
2018-08-04T07:31:11.822Z,26.47
2018-08-04T07:32:11.750Z,26.54
2018-08-04T07:34:04.768Z,26.66
2018-08-04T07:35:04.693Z,26.73
2018-08-04T07:36:57.724Z,26.77
2018-08-04T07:37:57.635Z,26.94
2018-08-04T07:39:50.630Z,26.99
2018-08-04T07:40:50.558Z,27.02
2018-08-04T07:42:43.569Z,27.10
2018-08-04T07:43:43.489Z,27.17
2018-08-04T07:45:36.254Z,27.13
2018-08-04T07:46:36.180Z,27.19
2018-08-04T07:48:29.188Z,27.14
2018-08-04T07:49:29.111Z,27.17
2018-08-04T07:51:22.108Z,27.18
2018-08-04T07:52:22.052Z,27.24
2018-08-04T07:54:14.814Z,27.32
2018-08-04T07:55:14.737Z,27.32
2018-08-04T07:57:07.525Z,27.34
2018-08-04T07:58:07.505Z,27.36
2018-08-04T08:00:00.336Z,27.41
2018-08-04T08:01:00.255Z,27.37
2018-08-04T08:02:53.256Z,27.54
2018-08-04T08:03:53.181Z,27.62
2018-08-04T08:05:45.956Z,27.63
2018-08-04T08:06:45.878Z,27.85
2018-08-04T08:08:38.669Z,27.96
2018-08-04T08:09:38.586Z,27.87
2018-08-04T08:11:31.351Z,27.93
2018-08-04T08:12:31.283Z,27.92
2018-08-04T08:14:24.056Z,28.02
2018-08-04T08:15:23.976Z,28.02
2018-08-04T08:17:16.740Z,28.04
2018-08-04T08:18:16.672Z,28.06
2018-08-04T08:20:09.687Z,28.06
2018-08-04T08:21:09.605Z,28.11
2018-08-04T08:23:02.614Z,28.14
2018-08-04T08:24:02.558Z,28.22
2018-08-04T08:25:55.373Z,28.31
2018-08-04T08:26:55.300Z,28.34
2018-08-04T08:28:48.302Z,28.44
2018-08-04T08:29:48.225Z,28.55
2018-08-04T08:31:41.283Z,28.67
2018-08-04T08:32:41.221Z,28.74
2018-08-04T08:34:33.946Z,28.77
2018-08-04T08:35:33.867Z,28.80
2018-08-04T08:37:26.636Z,28.73
2018-08-04T08:38:26.568Z,28.78
2018-08-04T08:40:19.363Z,28.78
2018-08-04T08:41:19.260Z,28.85
2018-08-04T08:43:12.024Z,28.98
2018-08-04T08:44:11.953Z,29.02
2018-08-04T08:46:05.026Z,29.19
2018-08-04T08:47:04.892Z,29.21
2018-08-04T08:48:57.909Z,29.09
2018-08-04T08:49:57.827Z,29.06
2018-08-04T08:51:50.596Z,29.16
2018-08-04T08:52:50.527Z,29.28
2018-08-04T08:54:43.957Z,29.51
2018-08-04T08:55:43.878Z,29.49
2018-08-04T08:57:36.643Z,29.51
2018-08-04T08:58:36.576Z,29.53
2018-08-04T09:00:29.350Z,29.55
2018-08-04T09:01:29.307Z,29.63
2018-08-04T09:03:22.041Z,29.80
2018-08-04T09:04:21.974Z,29.95
2018-08-04T09:06:14.751Z,30.05
2018-08-04T09:07:14.670Z,30.10
2018-08-04T09:09:07.672Z,30.16
2018-08-04T09:10:07.601Z,30.26
2018-08-04T09:12:00.438Z,30.72
2018-08-04T09:13:00.354Z,31.12
2018-08-04T09:14:53.367Z,31.06
2018-08-04T09:15:53.304Z,31.07
2018-08-04T09:17:46.325Z,31.01
2018-08-04T09:18:46.242Z,30.94
2018-08-04T09:20:39.281Z,31.17
2018-08-04T09:21:39.198Z,31.61
2018-08-04T09:23:31.988Z,32.45
2018-08-04T09:24:31.923Z,32.70
2018-08-04T09:26:24.715Z,33.03
2018-08-04T09:27:24.643Z,33.03
2018-08-04T09:29:17.421Z,33.29
2018-08-04T09:30:17.356Z,33.79
2018-08-04T09:32:10.342Z,33.73
2018-08-04T09:33:10.268Z,33.34
2018-08-04T09:35:03.286Z,32.85
2018-08-04T09:36:03.224Z,33.28
2018-08-04T09:37:56.261Z,34.21
2018-08-04T09:38:56.182Z,34.88
2018-08-04T09:40:49.043Z,35.29
2018-08-04T09:41:48.962Z,35.52
2018-08-04T09:43:41.753Z,36.07
2018-08-04T09:44:41.675Z,36.17
2018-08-04T09:46:34.474Z,35.93
2018-08-04T09:47:34.406Z,36.32
2018-08-04T09:49:27.402Z,36.88
2018-08-04T09:50:27.340Z,36.95
2018-08-04T09:52:20.133Z,36.35
2018-08-04T09:53:20.067Z,36.39
2018-08-04T09:55:12.848Z,37.03
2018-08-04T09:56:12.787Z,37.22
2018-08-04T09:58:05.816Z,37.76
2018-08-04T09:59:05.756Z,37.96
2018-08-04T10:00:58.641Z,38.32
2018-08-04T10:01:58.581Z,37.76
2018-08-04T10:03:51.613Z,37.51
2018-08-04T10:04:51.547Z,37.66
2018-08-04T10:06:44.346Z,38.30
2018-08-04T10:07:44.275Z,38.41
2018-08-04T10:09:37.058Z,38.35
2018-08-04T10:10:37.005Z,38.44
2018-08-04T10:12:29.798Z,38.90
2018-08-04T10:13:29.735Z,39.06
2018-08-04T10:15:22.525Z,38.56
2018-08-04T10:16:22.462Z,38.87
2018-08-04T10:18:15.264Z,39.14
2018-08-04T10:19:15.194Z,38.76
2018-08-04T10:21:08.234Z,39.52
2018-08-04T10:22:08.176Z,39.69
2018-08-04T10:24:01.223Z,39.89
2018-08-04T10:25:01.153Z,39.70
2018-08-04T10:26:54.202Z,39.26
2018-08-04T10:27:54.134Z,38.81
2018-08-04T10:29:47.124Z,38.28
2018-08-04T10:30:47.061Z,38.59
2018-08-04T10:32:39.934Z,38.23
2018-08-04T10:33:39.803Z,38.06
2018-08-04T10:35:32.837Z,38.16
2018-08-04T10:36:32.780Z,38.22
2018-08-04T10:38:25.579Z,38.88
2018-08-04T10:39:25.534Z,38.87
2018-08-04T10:41:18.313Z,38.31
2018-08-04T10:42:18.266Z,38.00
2018-08-04T10:44:11.109Z,37.41
2018-08-04T10:45:11.017Z,36.95
2018-08-04T10:47:04.084Z,35.97
2018-08-04T10:48:03.974Z,35.63
2018-08-04T10:49:56.817Z,34.94
2018-08-04T10:50:56.679Z,34.87
2018-08-04T10:52:49.725Z,35.03
2018-08-04T10:53:49.635Z,34.89
2018-08-04T10:55:43.026Z,35.16
2018-08-04T10:56:42.990Z,35.25
2018-08-04T10:58:35.705Z,35.22
2018-08-04T10:59:35.633Z,35.06
2018-08-04T11:01:28.413Z,34.59
2018-08-04T11:02:28.349Z,34.54
2018-08-04T11:04:21.137Z,34.30
2018-08-04T11:05:21.125Z,34.16
2018-08-04T11:07:13.852Z,34.17
2018-08-04T11:08:13.848Z,34.32
2018-08-04T11:10:06.882Z,34.52
2018-08-04T11:11:06.733Z,34.61
2018-08-04T11:12:59.804Z,34.75
2018-08-04T11:13:59.700Z,34.82
2018-08-04T11:15:52.715Z,34.88
2018-08-04T11:16:52.702Z,34.80
2018-08-04T11:18:45.746Z,34.61
2018-08-04T11:19:45.669Z,34.39
2018-08-04T11:21:38.443Z,34.47
2018-08-04T11:22:38.410Z,34.54
2018-08-04T11:24:31.405Z,34.87
2018-08-04T11:25:31.404Z,35.00
2018-08-04T11:27:24.112Z,35.15
2018-08-04T11:28:24.122Z,35.14
2018-08-04T11:30:17.124Z,34.87
2018-08-04T11:31:17.006Z,34.89
2018-08-04T11:33:11.325Z,34.89
2018-08-04T11:34:10.017Z,34.94
2018-08-04T11:36:02.969Z,34.87
2018-08-04T11:37:02.902Z,34.87
2018-08-04T11:38:55.690Z,34.81
2018-08-04T11:39:55.617Z,34.85
2018-08-04T11:41:48.424Z,34.52
2018-08-04T11:42:48.442Z,34.49
2018-08-04T11:44:41.144Z,34.31
2018-08-04T11:45:41.148Z,34.13
2018-08-04T11:47:33.853Z,34.28
2018-08-04T11:48:33.820Z,34.46
2018-08-04T11:50:26.561Z,34.49
2018-08-04T11:51:26.576Z,34.31
2018-08-04T11:53:19.294Z,34.31
2018-08-04T11:54:19.204Z,34.52
2018-08-04T11:56:12.055Z,34.44
2018-08-04T11:57:11.935Z,34.49
2018-08-04T11:59:05.010Z,33.91
2018-08-04T12:00:04.874Z,33.79
2018-08-04T12:01:57.662Z,33.93
2018-08-04T12:02:57.607Z,33.73
2018-08-04T12:04:50.654Z,33.93
2018-08-04T12:05:50.545Z,34.12
2018-08-04T12:07:43.356Z,34.66
2018-08-04T12:08:43.320Z,34.99
2018-08-04T12:10:36.036Z,35.47
2018-08-04T12:11:35.959Z,35.48
2018-08-04T12:13:28.753Z,35.70
2018-08-04T12:14:28.718Z,35.45
2018-08-04T12:16:21.534Z,35.14
2018-08-04T12:17:21.413Z,35.02
2018-08-04T12:19:14.211Z,35.04
2018-08-04T12:20:14.171Z,35.07
2018-08-04T12:22:07.119Z,34.91
2018-08-04T12:23:07.059Z,34.82
2018-08-04T12:25:00.077Z,34.75
2018-08-04T12:26:00.000Z,34.69
2018-08-04T12:27:53.012Z,34.70
2018-08-04T12:28:52.942Z,34.73
2018-08-04T12:30:45.732Z,34.78
2018-08-04T12:31:45.660Z,34.73
2018-08-04T12:33:38.430Z,34.75
2018-08-04T12:34:38.361Z,34.78
2018-08-04T12:36:31.145Z,34.69
2018-08-04T12:37:31.113Z,34.49
2018-08-04T12:39:23.855Z,34.28
2018-08-04T12:40:23.781Z,34.27
2018-08-04T12:42:16.557Z,34.34
2018-08-04T12:43:16.495Z,34.35
2018-08-04T12:45:09.274Z,34.53
2018-08-04T12:46:09.200Z,34.34
2018-08-04T12:48:02.205Z,34.32
2018-08-04T12:49:02.146Z,34.37
2018-08-04T12:50:55.154Z,34.27
2018-08-04T12:51:55.081Z,34.31
2018-08-04T12:53:48.151Z,34.24
2018-08-04T12:54:48.088Z,34.30
2018-08-04T12:56:40.869Z,34.42
2018-08-04T12:57:40.794Z,34.39
2018-08-04T12:59:33.579Z,34.49
2018-08-04T13:00:33.502Z,34.31
2018-08-04T13:02:26.280Z,34.37
2018-08-04T13:03:26.215Z,34.32
2018-08-04T13:05:18.995Z,34.06
2018-08-04T13:06:18.918Z,34.02
2018-08-04T13:08:11.695Z,34.02
2018-08-04T13:09:11.631Z,34.15
2018-08-04T13:11:04.469Z,34.17
2018-08-04T13:12:04.453Z,34.16
2018-08-04T13:13:57.396Z,34.44
2018-08-04T13:14:57.326Z,34.46
2018-08-04T13:16:50.415Z,34.19
2018-08-04T13:17:50.343Z,34.06
2018-08-04T13:19:43.315Z,33.94
2018-08-04T13:20:43.245Z,33.97
2018-08-04T13:22:36.141Z,34.00
2018-08-04T13:23:36.070Z,34.16
2018-08-04T13:25:28.850Z,34.32
2018-08-04T13:26:28.773Z,34.43
2018-08-04T13:28:21.545Z,34.39
2018-08-04T13:29:21.482Z,34.43
2018-08-04T13:31:14.263Z,34.64
2018-08-04T13:32:14.185Z,34.73
2018-08-04T13:34:07.195Z,34.89
2018-08-04T13:35:07.133Z,34.87
2018-08-04T13:37:00.162Z,35.04
2018-08-04T13:38:00.065Z,34.97
2018-08-04T13:39:53.072Z,35.26
2018-08-04T13:40:53.003Z,35.10
2018-08-04T13:42:45.924Z,35.00
2018-08-04T13:43:45.828Z,35.03
2018-08-04T13:45:38.610Z,34.99
2018-08-04T13:46:38.600Z,34.99
2018-08-04T13:48:31.306Z,35.84
2018-08-04T13:49:31.239Z,36.05
2018-08-04T13:51:24.036Z,35.71
2018-08-04T13:52:23.955Z,35.65
2018-08-04T13:54:16.728Z,35.78
2018-08-04T13:55:16.659Z,36.39
2018-08-04T13:57:09.512Z,37.18
2018-08-04T13:58:09.427Z,36.99
2018-08-04T14:00:02.445Z,36.46
2018-08-04T14:01:02.381Z,36.32
2018-08-04T14:02:55.273Z,35.96
2018-08-04T14:03:55.204Z,35.96
2018-08-04T14:05:48.297Z,35.93
2018-08-04T14:06:48.151Z,36.22
2018-08-04T14:08:40.927Z,37.03
2018-08-04T14:09:40.867Z,37.59
2018-08-04T14:11:33.651Z,37.49
2018-08-04T14:12:33.618Z,37.46
2018-08-04T14:14:26.357Z,37.36
2018-08-04T14:15:26.290Z,38.03
2018-08-04T14:17:19.178Z,39.14
2018-08-04T14:18:19.006Z,39.23
2018-08-04T14:20:11.785Z,38.95
2018-08-04T14:21:11.723Z,39.44
2018-08-04T14:23:04.754Z,40.31
2018-08-04T14:24:04.682Z,40.08
2018-08-04T14:25:57.553Z,41.06
2018-08-04T14:26:57.468Z,41.45
2018-08-04T14:28:50.584Z,41.67
2018-08-04T14:29:50.427Z,41.51
2018-08-04T14:31:43.227Z,41.45
2018-08-04T14:32:43.160Z,41.69
2018-08-04T14:34:36.178Z,41.14
2018-08-04T14:35:36.119Z,41.74
2018-08-04T14:37:28.921Z,42.52
2018-08-04T14:38:28.855Z,42.59
2018-08-04T14:40:21.642Z,42.66
2018-08-04T14:41:21.588Z,42.17
2018-08-04T14:43:14.388Z,42.01
2018-08-04T14:44:14.325Z,41.51
2018-08-04T14:46:07.350Z,41.32
2018-08-04T14:47:07.292Z,40.53
2018-08-04T14:49:00.331Z,41.51
2018-08-04T14:50:00.261Z,42.05
2018-08-04T14:51:53.068Z,42.47
2018-08-04T14:52:52.998Z,41.83
2018-08-04T14:54:46.099Z,41.93
2018-08-04T14:55:46.039Z,41.96
2018-08-04T14:57:39.121Z,42.65
2018-08-04T14:58:39.014Z,43.02
2018-08-04T15:00:31.811Z,42.62
2018-08-04T15:01:31.754Z,42.37
2018-08-04T15:03:24.586Z,43.87
2018-08-04T15:04:24.499Z,43.93
2018-08-04T15:06:17.284Z,43.76
2018-08-04T15:07:17.230Z,43.61
2018-08-04T15:09:10.269Z,43.05
2018-08-04T15:10:10.292Z,43.45
2018-08-04T15:12:03.070Z,43.78
2018-08-04T15:13:03.005Z,43.54
2018-08-04T15:14:56.030Z,43.15
2018-08-04T15:15:55.974Z,43.41
2018-08-04T15:17:49.018Z,43.47
2018-08-04T15:18:48.947Z,42.77
2018-08-04T15:20:42.786Z,41.64
2018-08-04T15:21:42.820Z,41.84
2018-08-04T15:23:35.532Z,42.66
2018-08-04T15:24:35.469Z,42.84
2018-08-04T15:26:28.264Z,42.62
2018-08-04T15:27:28.205Z,43.38
2018-08-04T15:29:21.008Z,43.72
2018-08-04T15:30:20.940Z,43.68
2018-08-04T15:32:13.747Z,43.84
2018-08-04T15:33:13.729Z,43.33
2018-08-04T15:35:06.631Z,42.49
2018-08-04T15:36:06.521Z,41.98
2018-08-04T15:37:59.561Z,41.11
2018-08-04T15:38:59.491Z,41.02
2018-08-04T15:40:52.342Z,41.26
2018-08-04T15:41:52.285Z,41.44
2018-08-04T15:43:45.399Z,41.74
2018-08-04T15:44:45.334Z,42.04
2018-08-04T15:46:38.119Z,42.08
2018-08-04T15:47:38.064Z,42.12
2018-08-04T15:49:30.858Z,42.43
2018-08-04T15:50:30.797Z,41.47
2018-08-04T15:52:23.593Z,41.16
2018-08-04T15:53:23.524Z,41.13
2018-08-04T15:55:16.328Z,41.60
2018-08-04T15:56:16.263Z,41.49
2018-08-04T15:58:09.072Z,41.07
2018-08-04T15:59:09.005Z,41.55
2018-08-04T16:01:02.028Z,41.32
2018-08-04T16:02:01.976Z,40.99
2018-08-04T16:03:55.001Z,39.81
2018-08-04T16:04:54.936Z,40.48
2018-08-04T16:06:47.725Z,39.96
2018-08-04T16:07:47.666Z,40.70
2018-08-04T16:09:40.467Z,41.52
2018-08-04T16:10:40.396Z,41.44
2018-08-04T16:12:33.179Z,41.49
2018-08-04T16:13:33.116Z,41.74
2018-08-04T16:15:25.916Z,41.08
2018-08-04T16:16:25.853Z,40.83
2018-08-04T16:18:18.645Z,40.80
2018-08-04T16:19:18.575Z,41.23
2018-08-04T16:21:11.360Z,41.49
2018-08-04T16:22:11.300Z,41.78
2018-08-04T16:24:04.097Z,41.52
2018-08-04T16:25:04.027Z,41.66
2018-08-04T16:26:57.052Z,42.27
2018-08-04T16:27:56.993Z,42.40
2018-08-04T16:29:49.793Z,41.36
2018-08-04T16:30:49.724Z,41.11
2018-08-04T16:32:43.134Z,41.07
2018-08-04T16:33:43.069Z,40.87
2018-08-04T16:35:35.867Z,40.82
2018-08-04T16:36:35.796Z,39.78
2018-08-04T16:38:28.607Z,40.69
2018-08-04T16:39:28.533Z,40.77
2018-08-04T16:41:21.311Z,41.10
2018-08-04T16:42:21.251Z,40.38
2018-08-04T16:44:14.049Z,39.06
2018-08-04T16:45:13.977Z,38.32
2018-08-04T16:47:06.996Z,36.84
2018-08-04T16:48:06.935Z,36.62
2018-08-04T16:50:00.011Z,36.32
2018-08-04T16:50:59.900Z,36.23
2018-08-04T16:52:52.927Z,36.08
2018-08-04T16:53:52.873Z,35.96
2018-08-04T16:55:45.673Z,35.84
2018-08-04T16:56:45.592Z,35.90
2018-08-04T16:58:38.624Z,35.50
2018-08-04T16:59:38.560Z,35.22
2018-08-04T17:01:31.338Z,35.22
2018-08-04T17:02:31.275Z,35.22
2018-08-04T17:04:24.074Z,35.10
2018-08-04T17:05:23.993Z,35.14
2018-08-04T17:07:16.771Z,34.96
2018-08-04T17:08:16.710Z,35.04
2018-08-04T17:10:09.739Z,34.81
2018-08-04T17:11:09.668Z,34.85
2018-08-04T17:13:02.708Z,34.73
2018-08-04T17:14:02.642Z,34.70
2018-08-04T17:15:55.662Z,34.53
2018-08-04T17:16:55.588Z,34.37
2018-08-04T17:18:48.623Z,34.13
2018-08-04T17:19:48.538Z,34.19
2018-08-04T17:21:41.398Z,34.15
2018-08-04T17:22:41.244Z,34.17
2018-08-04T17:24:34.032Z,34.02
2018-08-04T17:25:33.958Z,33.88
2018-08-04T17:27:26.733Z,33.71
2018-08-04T17:28:26.665Z,33.66
2018-08-04T17:30:19.447Z,33.51
2018-08-04T17:31:19.380Z,33.51
2018-08-04T17:33:12.155Z,33.54
2018-08-04T17:34:12.082Z,33.53
2018-08-04T17:36:05.113Z,33.47
2018-08-04T17:37:05.024Z,33.53
2018-08-04T17:38:58.032Z,33.42
2018-08-04T17:39:57.972Z,33.23
2018-08-04T17:41:50.992Z,33.19
2018-08-04T17:42:50.920Z,33.06
2018-08-04T17:44:43.697Z,33.03
2018-08-04T17:45:43.624Z,33.00
2018-08-04T17:47:36.392Z,32.92
2018-08-04T17:48:36.329Z,32.88
2018-08-04T17:50:29.110Z,32.79
2018-08-04T17:51:29.076Z,32.75
2018-08-04T17:53:21.808Z,32.65
2018-08-04T17:54:21.742Z,32.62
2018-08-04T17:56:14.520Z,32.62
2018-08-04T17:57:14.562Z,32.57
2018-08-04T17:59:07.453Z,32.57
2018-08-04T18:00:07.387Z,32.52
2018-08-04T18:02:00.406Z,32.52
2018-08-04T18:03:00.328Z,32.41
2018-08-04T18:04:53.354Z,32.32
2018-08-04T18:05:53.272Z,32.26
2018-08-04T18:07:46.040Z,32.30
2018-08-04T18:08:45.978Z,32.33
2018-08-04T18:10:38.756Z,32.15
2018-08-04T18:11:38.678Z,32.18
2018-08-04T18:13:31.449Z,32.01
2018-08-04T18:14:31.386Z,32.01
2018-08-04T18:16:24.170Z,31.95
2018-08-04T18:17:24.095Z,31.95
2018-08-04T18:19:17.099Z,31.92
2018-08-04T18:20:17.030Z,31.80
2018-08-04T18:22:10.079Z,31.70
2018-08-04T18:23:09.974Z,31.70
2018-08-04T18:25:02.760Z,31.57
2018-08-04T18:26:02.690Z,31.50
2018-08-04T18:27:55.830Z,31.35
2018-08-04T18:28:55.763Z,31.36
2018-08-04T18:30:48.610Z,31.46
2018-08-04T18:31:48.484Z,31.34
2018-08-04T18:39:35.482Z,31.28